Time;durP1;ratioP1;P1;durP2;ratioP2;P2;SDS_P1;SDS_P2;PMS_P1;PMS_P2;Temp;Humidity;BMP_temperature;BMP_pressure;BME280_temperature;BME280_humidity;BME280_pressure;Samples;Min_cycle;Max_cycle;Signal;HPM_P1;HPM_P2
2021/07/04 00:02:08;;;;;;;11.27;10.07;;;17.80;91.30;;;;;;4980099;28;20030;-71
2021/07/04 00:04:34;;;;;;;9.70;8.63;;;17.70;91.50;;;;;;4980138;28;20067;-71
2021/07/04 00:07:00;;;;;;;10.88;9.77;;;17.70;91.40;;;;;;4979982;28;20034;-71
2021/07/04 00:09:26;;;;;;;11.88;9.35;;;17.70;91.30;;;;;;4980177;28;20632;-71
2021/07/04 00:11:51;;;;;;;11.27;9.13;;;17.60;91.50;;;;;;4979801;28;20023;-71
2021/07/04 00:14:18;;;;;;;14.15;10.73;;;17.60;91.50;;;;;;4979866;28;20367;-71
2021/07/04 00:16:44;;;;;;;14.25;8.95;;;17.60;91.70;;;;;;4980008;28;20026;-71
2021/07/04 00:19:10;;;;;;;13.55;10.40;;;17.50;91.70;;;;;;4980241;28;20018;-71
2021/07/04 00:21:35;;;;;;;12.95;11.02;;;17.50;91.90;;;;;;4979671;28;20035;-71
2021/07/04 00:24:01;;;;;;;14.45;10.10;;;17.50;92.00;;;;;;4980080;28;20404;-71
2021/07/04 00:26:26;;;;;;;13.50;9.13;;;17.40;92.00;;;;;;4979516;28;20026;-71
2021/07/04 00:28:52;;;;;;;10.25;9.10;;;17.40;92.10;;;;;;4979906;28;20023;-71
2021/07/04 00:31:18;;;;;;;10.43;8.95;;;17.30;92.10;;;;;;4979678;28;20087;-71
2021/07/04 00:33:43;;;;;;;9.93;8.82;;;17.30;92.30;;;;;;5016373;23;20522;-77
2021/07/04 00:36:09;;;;;;;13.30;11.23;;;17.20;92.80;;;;;;5027409;28;20032;-74
2021/07/04 00:38:35;;;;;;;17.13;10.73;;;17.20;92.50;;;;;;5035771;28;20029;-74
2021/07/04 00:41:02;;;;;;;14.88;11.13;;;17.20;92.70;;;;;;5019445;28;20419;-77
2021/07/04 00:43:27;;;;;;;12.88;11.07;;;17.20;92.70;;;;;;5027100;28;20029;-78
2021/07/04 00:45:53;;;;;;;11.70;10.20;;;17.20;92.90;;;;;;5029001;28;20103;-78
2021/07/04 00:48:18;;;;;;;13.73;9.48;;;17.20;92.80;;;;;;5028715;28;20072;-78
2021/07/04 00:50:44;;;;;;;15.75;10.23;;;17.10;93.10;;;;;;5028866;28;20025;-74
2021/07/04 00:53:10;;;;;;;11.50;9.32;;;17.00;92.90;;;;;;5028286;28;20025;-78
2021/07/04 00:55:35;;;;;;;14.02;8.68;;;17.00;93.00;;;;;;5028500;28;20392;-75
2021/07/04 00:58:01;;;;;;;10.82;9.35;;;17.00;93.00;;;;;;5028503;28;20399;-74
2021/07/04 01:00:30;;;;;;;11.57;9.10;;;17.00;93.00;;;;;;5028363;28;20083;-74
2021/07/04 01:02:56;;;;;;;11.95;10.48;;;16.90;93.10;;;;;;5028381;28;20455;-74
2021/07/04 01:05:27;;;;;;;10.15;9.15;;;16.90;93.40;;;;;;5028009;28;20093;-74
2021/07/04 01:07:54;;;;;;;13.55;8.95;;;16.90;93.20;;;;;;5043502;28;20030;-77
2021/07/04 01:10:22;;;;;;;12.77;10.30;;;16.80;93.30;;;;;;5031204;28;20033;-78
2021/07/04 01:12:49;;;;;;;11.60;10.40;;;16.90;93.50;;;;;;5031630;28;20029;-75
2021/07/04 01:15:17;;;;;;;10.43;9.32;;;16.80;93.40;;;;;;5031733;28;20084;-77
2021/07/04 01:17:43;;;;;;;13.07;8.93;;;16.80;93.20;;;;;;5031843;28;20087;-75
2021/07/04 01:20:14;;;;;;;13.95;11.30;;;16.70;93.40;;;;;;5032243;28;20039;-75
2021/07/04 01:22:41;;;;;;;9.18;7.97;;;16.70;93.40;;;;;;5031625;28;20021;-78
2021/07/04 01:25:11;;;;;;;18.92;15.38;;;16.70;93.50;;;;;;5030607;28;20037;-77
2021/07/04 01:27:38;;;;;;;16.80;14.27;;;16.60;93.80;;;;;;5030398;28;20160;-74
2021/07/04 01:30:09;;;;;;;14.15;10.10;;;16.60;94.00;;;;;;5031869;28;20480;-74
2021/07/04 01:32:35;;;;;;;9.52;8.52;;;16.60;93.70;;;;;;5031265;28;20132;-77
2021/07/04 01:35:00;;;;;;;19.33;12.05;;;16.60;93.70;;;;;;5038743;28;20033;-76
2021/07/04 01:37:26;;;;;;;12.68;11.38;;;16.60;93.70;;;;;;5031606;28;20025;-77
2021/07/04 01:39:51;;;;;;;12.73;10.75;;;16.50;93.80;;;;;;5030306;28;20420;-74
2021/07/04 01:42:17;;;;;;;13.18;11.63;;;16.40;93.70;;;;;;5029836;28;20053;-76
2021/07/04 01:44:42;;;;;;;11.27;9.30;;;16.40;93.80;;;;;;5031600;28;20033;-77
2021/07/04 01:47:08;;;;;;;11.73;10.55;;;16.30;93.80;;;;;;5031318;28;20026;-77
2021/07/04 01:49:34;;;;;;;11.80;10.60;;;16.30;94.10;;;;;;5031286;28;20547;-74
2021/07/04 01:51:59;;;;;;;18.88;9.32;;;16.30;94.00;;;;;;5029979;28;20372;-77
2021/07/04 01:54:25;;;;;;;10.95;9.25;;;16.30;94.00;;;;;;5030998;28;20029;-74
2021/07/04 01:56:50;;;;;;;9.40;8.30;;;16.20;94.10;;;;;;5031231;28;20033;-75
2021/07/04 01:59:16;;;;;;;9.82;8.82;;;16.10;94.10;;;;;;5038183;28;20631;-74
2021/07/04 02:01:42;;;;;;;10.43;9.35;;;16.10;94.00;;;;;;5029924;28;20377;-74
2021/07/04 02:04:07;;;;;;;12.23;8.75;;;16.10;94.20;;;;;;5038001;28;20055;-76
2021/07/04 02:06:33;;;;;;;12.60;8.80;;;16.10;94.20;;;;;;5030971;28;20029;-76
2021/07/04 02:08:59;;;;;;;9.73;8.70;;;16.20;94.30;;;;;;5031014;28;20026;-78
2021/07/04 02:11:24;;;;;;;10.25;8.77;;;16.10;94.20;;;;;;5030793;28;20065;-78
2021/07/04 02:13:51;;;;;;;11.50;9.48;;;16.10;94.10;;;;;;5031011;28;20404;-77
2021/07/04 02:16:16;;;;;;;12.13;9.43;;;16.10;94.10;;;;;;5030227;28;20373;-79
2021/07/04 02:18:43;;;;;;;18.98;10.05;;;16.10;94.10;;;;;;5031065;28;20567;-77
2021/07/04 02:21:08;;;;;;;9.13;8.27;;;16.00;94.10;;;;;;5029119;28;20595;-76
2021/07/04 02:23:34;;;;;;;9.25;8.30;;;16.00;94.30;;;;;;5030611;28;20095;-77
2021/07/04 02:26:00;;;;;;;11.68;9.63;;;16.00;94.30;;;;;;5030793;28;20095;-78
2021/07/04 02:28:28;;;;;;;10.00;8.75;;;16.00;94.30;;;;;;5028982;28;20037;-77
2021/07/04 02:30:56;;;;;;;9.60;8.68;;;15.90;94.40;;;;;;5030351;28;20017;-76
2021/07/04 02:33:24;;;;;;;9.85;8.85;;;15.90;94.40;;;;;;5036680;28;20037;-74
2021/07/04 02:35:52;;;;;;;11.07;8.95;;;15.90;94.30;;;;;;5030346;28;20029;-77
2021/07/04 02:38:19;;;;;;;10.68;9.32;;;15.90;94.20;;;;;;5029952;28;20076;-74
2021/07/04 02:40:45;;;;;;;11.57;9.43;;;15.90;94.30;;;;;;5030637;28;20388;-77
2021/07/04 02:43:13;;;;;;;11.20;9.35;;;15.80;94.20;;;;;;5029995;28;20474;-78
2021/07/04 02:45:39;;;;;;;10.52;9.35;;;15.80;94.20;;;;;;5030381;28;20468;-74
2021/07/04 02:48:07;;;;;;;10.93;8.82;;;15.80;94.30;;;;;;5030182;28;20381;-74
2021/07/04 02:50:33;;;;;;;15.10;8.38;;;15.80;94.30;;;;;;5030166;28;20096;-77
2021/07/04 02:52:58;;;;;;;12.50;9.63;;;15.80;94.20;;;;;;5030057;28;20109;-78
2021/07/04 02:55:26;;;;;;;14.23;9.63;;;15.80;94.30;;;;;;5030014;28;20075;-75
2021/07/04 02:57:52;;;;;;;11.88;10.02;;;15.70;94.30;;;;;;5030026;28;20586;-74
2021/07/04 03:00:23;;;;;;;14.73;9.90;;;15.60;94.20;;;;;;5028630;28;20108;-73
2021/07/04 03:02:49;;;;;;;14.07;9.60;;;15.60;94.60;;;;;;5029824;28;20026;-76
2021/07/04 03:05:15;;;;;;;12.20;10.20;;;15.60;94.50;;;;;;5029729;28;20052;-74
2021/07/04 03:07:41;;;;;;;13.25;10.15;;;15.60;94.50;;;;;;5029623;28;20034;-74
2021/07/04 03:10:08;;;;;;;10.15;9.02;;;15.60;94.50;;;;;;5029777;28;20370;-78
2021/07/04 03:12:34;;;;;;;13.20;10.15;;;15.50;94.70;;;;;;5029424;28;20577;-78
2021/07/04 03:15:00;;;;;;;10.98;9.88;;;15.50;94.60;;;;;;5028434;28;20120;-74
2021/07/04 03:17:25;;;;;;;11.80;10.05;;;15.50;94.70;;;;;;5029513;28;20026;-74
2021/07/04 03:19:51;;;;;;;14.25;10.32;;;15.50;94.80;;;;;;5020145;28;20083;-74
2021/07/04 03:22:17;;;;;;;12.43;9.45;;;15.40;94.80;;;;;;5029109;28;20274;-76
2021/07/04 03:24:42;;;;;;;9.65;8.65;;;15.50;95.00;;;;;;5029536;28;20026;-74
2021/07/04 03:27:09;;;;;;;12.65;9.45;;;15.50;94.90;;;;;;5036351;28;20078;-74
2021/07/04 03:29:35;;;;;;;9.68;8.68;;;15.60;95.00;;;;;;5028224;28;20029;-74
2021/07/04 03:32:01;;;;;;;11.18;9.95;;;15.60;95.10;;;;;;5029125;28;20036;-77
2021/07/04 03:34:26;;;;;;;13.63;10.40;;;15.60;94.90;;;;;;5028001;28;20042;-74
2021/07/04 03:36:52;;;;;;;15.13;11.27;;;15.60;94.80;;;;;;5029421;28;20510;-75
2021/07/04 03:39:17;;;;;;;16.35;10.20;;;15.60;94.80;;;;;;5029414;28;20028;-74
2021/07/04 03:41:43;;;;;;;11.63;9.52;;;15.50;94.70;;;;;;5029387;28;20024;-77
2021/07/04 03:44:09;;;;;;;12.07;10.38;;;15.60;94.70;;;;;;5027593;28;20396;-76
2021/07/04 03:46:34;;;;;;;10.73;8.90;;;15.90;94.90;;;;;;5029351;28;20100;-77
2021/07/04 03:49:00;;;;;;;10.63;9.52;;;16.40;94.60;;;;;;5029313;28;20108;-77
2021/07/04 03:51:25;;;;;;;11.85;8.38;;;16.80;94.20;;;;;;5029076;28;20029;-78
2021/07/04 03:53:51;;;;;;;12.95;10.38;;;17.20;93.80;;;;;;5027547;28;20025;-77
2021/07/04 03:56:17;;;;;;;9.55;8.55;;;17.50;93.70;;;;;;5029023;28;20025;-78
2021/07/04 03:58:42;;;;;;;9.48;7.70;;;17.80;93.00;;;;;;5029210;28;20036;-76
2021/07/04 04:01:17;;;;;;;11.60;8.15;;;18.10;92.70;;;;;;5027807;28;20029;-76
2021/07/04 04:03:42;;;;;;;10.23;8.23;;;18.40;92.30;;;;;;5029171;28;20018;-77
2021/07/04 04:06:08;;;;;;;8.23;7.35;;;18.70;91.90;;;;;;5028712;28;20030;-76
2021/07/04 04:08:33;;;;;;;12.35;7.40;;;19.00;91.40;;;;;;5027591;28;20383;-74
2021/07/04 04:10:59;;;;;;;8.75;7.75;;;19.30;91.00;;;;;;5029079;28;20449;-77
2021/07/04 04:13:25;;;;;;;9.10;6.75;;;19.50;90.10;;;;;;5028823;28;20024;-74
2021/07/04 04:15:50;;;;;;;10.25;8.23;;;19.70;88.90;;;;;;5028732;28;20025;-79
2021/07/04 04:18:18;;;;;;;9.48;6.75;;;19.90;89.50;;;;;;5028891;28;20028;-74
2021/07/04 04:20:43;;;;;;;8.65;6.35;;;20.20;88.10;;;;;;5027625;28;20025;-74
2021/07/04 04:23:09;;;;;;;10.63;7.45;;;20.50;87.10;;;;;;5028787;28;20030;-74
2021/07/04 04:25:34;;;;;;;8.60;7.55;;;20.70;85.40;;;;;;5028912;28;20443;-74
2021/07/04 04:28:03;;;;;;;9.05;6.15;;;20.90;84.20;;;;;;5028644;28;20120;-74
2021/07/04 04:30:29;;;;;;;6.88;6.18;;;21.10;83.60;;;;;;5027275;28;20095;-75
2021/07/04 04:32:54;;;;;;;9.70;7.28;;;21.40;83.70;;;;;;5028319;28;20504;-75
2021/07/04 04:35:20;;;;;;;8.30;6.85;;;21.60;80.60;;;;;;5027377;28;20026;-74
2021/07/04 04:37:46;;;;;;;11.27;8.73;;;21.90;80.80;;;;;;5028895;28;20087;-74
2021/07/04 04:40:11;;;;;;;9.73;7.63;;;22.20;80.60;;;;;;5028669;28;20030;-75
2021/07/04 04:42:37;;;;;;;12.98;7.80;;;22.40;79.10;;;;;;5028556;28;20033;-74
2021/07/04 04:45:03;;;;;;;8.82;6.75;;;22.50;78.40;;;;;;5038290;28;20113;-74
2021/07/04 04:47:29;;;;;;;10.27;7.88;;;22.60;77.60;;;;;;5032331;28;20064;-75
2021/07/04 04:49:54;;;;;;;8.27;7.47;;;22.60;77.80;;;;;;5032461;28;20060;-75
2021/07/04 04:52:20;;;;;;;7.25;6.55;;;22.80;77.20;;;;;;5032287;28;20396;-75
2021/07/04 04:54:45;;;;;;;7.45;6.57;;;23.10;76.70;;;;;;5032255;28;20029;-74
2021/07/04 04:57:11;;;;;;;8.32;7.45;;;23.40;75.60;;;;;;5039327;28;20471;-74
2021/07/04 04:59:38;;;;;;;7.20;6.57;;;23.60;74.80;;;;;;5032268;28;20018;-74
2021/07/04 05:02:04;;;;;;;6.65;6.05;;;23.70;74.10;;;;;;5030896;28;20120;-74
2021/07/04 05:04:30;;;;;;;8.30;6.60;;;23.70;73.10;;;;;;5031780;28;20029;-75
2021/07/04 05:06:55;;;;;;;7.68;6.97;;;23.40;73.90;;;;;;5032082;28;20425;-75
2021/07/04 05:09:21;;;;;;;8.90;7.28;;;23.20;74.40;;;;;;5031821;28;20393;-75
2021/07/04 05:11:48;;;;;;;8.70;7.07;;;23.00;74.60;;;;;;5030811;28;20025;-75
2021/07/04 05:14:14;;;;;;;8.30;6.28;;;23.40;74.50;;;;;;5031309;28;20052;-75
2021/07/04 05:16:40;;;;;;;8.63;6.57;;;23.70;73.40;;;;;;5030766;28;20464;-75
2021/07/04 05:19:06;;;;;;;7.75;6.90;;;23.90;73.30;;;;;;5030155;28;20108;-75
2021/07/04 05:21:33;;;;;;;6.50;5.90;;;24.20;72.50;;;;;;5031728;28;20412;-75
2021/07/04 05:23:59;;;;;;;10.40;6.05;;;24.30;72.40;;;;;;5031509;28;20439;-75
2021/07/04 05:26:25;;;;;;;7.53;5.55;;;24.50;71.30;;;;;;5031442;28;20030;-75
2021/07/04 05:28:50;;;;;;;11.75;7.10;;;24.70;70.20;;;;;;5029951;28;20033;-75
2021/07/04 05:31:16;;;;;;;7.32;6.55;;;24.90;69.90;;;;;;5031836;28;20105;-75
2021/07/04 05:33:41;;;;;;;11.15;6.93;;;25.10;68.50;;;;;;5031431;28;20495;-75
2021/07/04 05:36:07;;;;;;;6.53;5.93;;;25.40;68.10;;;;;;5030179;28;20467;-75
2021/07/04 05:38:34;;;;;;;7.38;5.78;;;25.70;67.10;;;;;;5031492;28;20025;-75
2021/07/04 05:41:00;;;;;;;8.38;5.93;;;25.90;66.10;;;;;;5031608;28;20025;-75
2021/07/04 05:43:25;;;;;;;6.78;6.07;;;25.60;66.00;;;;;;5030775;28;20025;-75
2021/07/04 05:45:51;;;;;;;7.30;6.25;;;25.30;67.50;;;;;;5031491;28;20083;-75
2021/07/04 05:48:16;;;;;;;10.10;6.63;;;25.10;68.00;;;;;;5031021;28;20026;-75
2021/07/04 05:50:42;;;;;;;11.18;7.55;;;24.50;68.50;;;;;;5031365;28;20021;-75
2021/07/04 05:53:07;;;;;;;7.88;7.05;;;24.00;69.60;;;;;;5030655;28;20071;-75
2021/07/04 05:55:33;;;;;;;8.60;6.82;;;23.60;70.50;;;;;;5030884;28;20493;-75
2021/07/04 05:57:59;;;;;;;7.53;6.90;;;23.30;71.50;;;;;;5030905;28;20034;-75
2021/07/04 06:00:24;;;;;;;8.20;6.18;;;23.00;72.80;;;;;;5030807;28;20084;-75
2021/07/04 06:02:50;;;;;;;6.57;5.03;;;22.90;73.50;;;;;;5030701;28;20396;-75
2021/07/04 06:05:17;;;;;;;9.57;6.43;;;22.80;73.90;;;;;;5030778;28;20127;-75
2021/07/04 06:07:43;;;;;;;8.98;6.15;;;22.60;74.50;;;;;;5029702;28;20025;-74
2021/07/04 06:10:10;;;;;;;14.65;9.82;;;22.50;75.00;;;;;;5030682;28;20022;-75
2021/07/04 06:12:35;;;;;;;11.63;10.35;;;22.40;75.60;;;;;;5030816;28;20027;-75
2021/07/04 06:15:01;;;;;;;17.35;11.68;;;22.40;76.30;;;;;;5029531;28;20108;-75
2021/07/04 06:17:26;;;;;;;12.65;10.23;;;22.60;76.20;;;;;;5030790;28;20031;-75
2021/07/04 06:19:52;;;;;;;9.80;8.75;;;22.70;76.20;;;;;;5031013;28;20036;-75
2021/07/04 06:22:17;;;;;;;12.32;8.07;;;22.90;75.90;;;;;;5037523;28;20040;-75
2021/07/04 06:24:42;;;;;;;10.80;9.32;;;23.10;75.50;;;;;;5030614;28;20064;-75
2021/07/04 06:27:08;;;;;;;9.10;6.72;;;23.20;74.80;;;;;;5030455;28;20366;-75
2021/07/04 06:29:34;;;;;;;8.25;7.45;;;23.30;74.80;;;;;;5030437;28;20049;-75
2021/07/04 06:31:59;;;;;;;16.20;14.20;;;23.30;74.90;;;;;;5030530;28;20033;-75
2021/07/04 06:34:25;;;;;;;10.95;8.73;;;23.40;74.60;;;;;;5038497;23;20038;-76
2021/07/04 06:36:50;;;;;;;18.42;14.57;;;23.40;74.40;;;;;;5010667;28;20029;-76
2021/07/04 06:39:16;;;;;;;12.35;8.57;;;23.40;74.70;;;;;;5010587;28;20072;-75
2021/07/04 06:41:41;;;;;;;8.07;7.25;;;23.50;74.30;;;;;;5010496;28;20492;-75
2021/07/04 06:44:06;;;;;;;7.60;6.80;;;23.50;74.00;;;;;;4994922;28;20018;-75
2021/07/04 06:46:32;;;;;;;8.30;7.13;;;23.50;74.40;;;;;;4981086;28;20455;-75
2021/07/04 06:48:58;;;;;;;9.85;6.88;;;23.50;74.20;;;;;;4981397;28;20554;-75
2021/07/04 06:51:24;;;;;;;12.80;9.07;;;23.50;74.40;;;;;;4980867;28;20434;-75
2021/07/04 06:53:49;;;;;;;7.88;7.07;;;23.50;74.20;;;;;;4981321;28;20217;-75
2021/07/04 06:56:15;;;;;;;15.25;13.23;;;23.60;74.20;;;;;;4980923;28;20037;-75
2021/07/04 06:58:40;;;;;;;8.90;7.85;;;23.70;74.20;;;;;;4981163;28;20026;-76
2021/07/04 07:01:08;;;;;;;12.07;10.60;;;23.80;74.20;;;;;;4981125;28;20117;-75
2021/07/04 07:03:34;;;;;;;10.55;8.52;;;24.00;74.00;;;;;;4979677;28;20030;-75
2021/07/04 07:05:59;;;;;;;10.60;8.45;;;24.10;73.50;;;;;;4980868;28;20058;-75
2021/07/04 07:08:25;;;;;;;11.40;9.82;;;24.10;72.50;;;;;;4980316;28;20070;-75
2021/07/04 07:10:50;;;;;;;8.95;7.95;;;24.10;72.90;;;;;;4981088;28;20143;-74
2021/07/04 07:13:16;;;;;;;8.10;5.85;;;24.00;71.70;;;;;;4980559;28;20030;-75
2021/07/04 07:15:44;;;;;;;5.88;5.28;;;23.90;71.90;;;;;;4979764;28;20117;-74
2021/07/04 07:18:10;;;;;;;6.45;5.35;;;24.00;72.00;;;;;;4995745;28;20145;-74
2021/07/04 07:20:37;;;;;;;5.50;5.00;;;24.10;72.20;;;;;;4980837;28;20026;-76
2021/07/04 07:23:02;;;;;;;6.93;5.55;;;24.10;71.70;;;;;;4980448;28;20620;-76
2021/07/04 07:25:28;;;;;;;7.35;6.65;;;24.10;71.70;;;;;;4980541;28;20030;-75
2021/07/04 07:27:54;;;;;;;10.05;6.13;;;24.20;72.60;;;;;;4980444;28;20138;-75
2021/07/04 07:30:21;;;;;;;7.60;6.25;;;24.30;71.80;;;;;;4980592;28;20462;-75
2021/07/04 07:32:47;;;;;;;8.93;6.65;;;24.40;71.80;;;;;;4980882;28;20539;-75
2021/07/04 07:35:13;;;;;;;5.97;5.40;;;24.50;72.00;;;;;;4980242;28;20561;-76
2021/07/04 07:37:40;;;;;;;5.70;5.10;;;24.50;71.60;;;;;;4980437;28;20433;-76
2021/07/04 07:40:07;;;;;;;6.53;4.97;;;24.50;71.10;;;;;;4980570;28;20030;-76
2021/07/04 07:42:33;;;;;;;8.57;7.20;;;24.60;71.70;;;;;;4980244;28;20611;-76
2021/07/04 07:45:00;;;;;;;12.38;6.70;;;24.70;71.40;;;;;;4995227;28;20022;-76
2021/07/04 07:47:26;;;;;;;7.30;5.70;;;24.70;70.50;;;;;;4980094;28;20026;-75
2021/07/04 07:49:51;;;;;;;5.68;5.05;;;24.70;69.10;;;;;;4980393;28;20042;-75
2021/07/04 07:52:17;;;;;;;7.75;5.60;;;24.70;70.20;;;;;;4979802;28;20554;-75
2021/07/04 07:54:42;;;;;;;9.50;7.70;;;24.70;70.50;;;;;;4979980;28;20031;-76
2021/07/04 07:57:08;;;;;;;9.75;8.43;;;24.80;70.90;;;;;;4980400;28;20497;-75
2021/07/04 07:59:34;;;;;;;8.95;6.25;;;25.00;70.90;;;;;;4980120;28;20030;-75
2021/07/04 08:02:00;;;;;;;7.93;7.07;;;25.10;70.00;;;;;;4980246;28;20030;-75
2021/07/04 08:04:26;;;;;;;5.70;4.05;;;25.00;70.40;;;;;;4980545;28;20504;-75
2021/07/04 08:06:51;;;;;;;9.93;5.43;;;25.10;70.00;;;;;;4980275;28;20097;-75
2021/07/04 08:09:17;;;;;;;4.68;4.20;;;25.00;70.20;;;;;;4979899;28;20098;-76
2021/07/04 08:11:43;;;;;;;6.43;5.15;;;25.00;69.80;;;;;;4980446;28;20022;-73
2021/07/04 08:14:09;;;;;;;11.82;5.70;;;24.90;70.80;;;;;;4979947;28;20096;-73
2021/07/04 08:16:34;;;;;;;8.27;4.82;;;25.00;70.90;;;;;;4980003;28;20086;-73
2021/07/04 08:19:00;;;;;;;6.25;5.32;;;25.00;70.60;;;;;;4983037;28;20042;-73
2021/07/04 08:21:29;;;;;;;5.90;5.25;;;25.00;70.70;;;;;;4984023;28;20294;-73
2021/07/04 08:23:56;;;;;;;5.45;4.95;;;25.00;70.40;;;;;;4983773;28;20026;-73
2021/07/04 08:26:23;;;;;;;5.93;4.53;;;25.00;70.40;;;;;;4983956;28;20057;-73
2021/07/04 08:28:48;;;;;;;5.03;4.55;;;25.00;70.40;;;;;;4983876;28;20026;-73
2021/07/04 08:31:14;;;;;;;10.85;4.97;;;25.00;70.50;;;;;;4983586;28;20411;-73
2021/07/04 08:33:40;;;;;;;8.13;5.13;;;25.00;70.40;;;;;;4983441;28;20031;-73
2021/07/04 08:36:06;;;;;;;8.77;6.75;;;25.10;70.70;;;;;;4983863;28;20029;-73
2021/07/04 08:38:32;;;;;;;5.47;4.95;;;25.20;70.50;;;;;;4984174;28;20113;-73
2021/07/04 08:40:57;;;;;;;10.85;5.47;;;25.30;70.80;;;;;;4983445;28;20035;-73
2021/07/04 08:43:30;;;;;;;5.65;5.05;;;25.50;70.30;;;;;;4983646;28;20037;-73
2021/07/04 08:45:57;;;;;;;5.65;5.10;;;25.70;70.80;;;;;;4983430;28;20030;-73
2021/07/04 08:48:23;;;;;;;4.82;4.43;;;25.80;70.00;;;;;;4983288;28;20465;-73
2021/07/04 08:50:51;;;;;;;6.18;4.50;;;25.80;68.40;;;;;;4997952;28;20110;-73
2021/07/04 08:53:16;;;;;;;6.70;5.35;;;25.80;69.00;;;;;;4983405;28;20030;-73
2021/07/04 08:55:43;;;;;;;5.75;4.22;;;25.80;68.50;;;;;;4983215;28;20026;-73
2021/07/04 08:58:09;;;;;;;5.05;4.35;;;25.80;68.40;;;;;;4983590;28;20046;-73
2021/07/04 09:00:35;;;;;;;5.85;4.82;;;25.90;68.00;;;;;;4983256;28;20034;-73
2021/07/04 09:03:24;;;;;;;4.70;4.28;;;25.90;67.50;;;;;;4983259;28;20081;-73
2021/07/04 09:05:50;;;;;;;6.53;4.78;;;25.90;68.00;;;;;;4983658;28;20018;-73
2021/07/04 09:08:20;;;;;;;8.05;4.55;;;26.00;67.40;;;;;;4983085;28;20033;-73
2021/07/04 09:10:47;;;;;;;4.93;4.43;;;26.10;67.60;;;;;;4983135;28;20026;-74
2021/07/04 09:13:32;;;;;;;4.55;4.03;;;26.10;67.30;;;;;;4983100;28;20074;-74
2021/07/04 09:16:15;;;;;;;4.45;4.05;;;26.20;67.20;;;;;;4982790;28;20038;-74
2021/07/04 09:18:41;;;;;;;8.10;4.15;;;26.30;67.10;;;;;;4983301;28;20054;-75
2021/07/04 09:21:22;;;;;;;4.35;3.75;;;26.40;66.70;;;;;;4982824;28;20058;-74
2021/07/04 09:23:49;;;;;;;4.60;4.20;;;26.40;66.90;;;;;;4982760;28;20081;-74
2021/07/04 09:26:41;;;;;;;4.88;4.38;;;26.20;66.00;;;;;;4982540;28;20034;-74
2021/07/04 09:29:08;;;;;;;5.22;4.75;;;26.20;66.50;;;;;;4982399;28;20027;-74
2021/07/04 09:31:34;;;;;;;8.65;7.15;;;26.20;65.40;;;;;;4982453;28;20027;-75
2021/07/04 09:34:11;;;;;;;4.82;4.22;;;26.30;65.60;;;;;;4982407;28;20038;-75
2021/07/04 09:36:39;;;;;;;4.00;3.60;;;26.40;64.80;;;;;;4982982;28;20482;-75
2021/07/04 09:39:19;;;;;;;5.25;4.75;;;26.50;64.40;;;;;;4982691;28;20035;-75
2021/07/04 09:42:06;;;;;;;5.30;4.30;;;26.50;64.80;;;;;;4997822;28;20085;-76
2021/07/04 09:44:31;;;;;;;5.80;4.82;;;26.50;63.40;;;;;;4982483;28;20034;-75
2021/07/04 09:47:11;;;;;;;4.82;3.60;;;26.50;62.90;;;;;;4982534;28;20045;-76
2021/07/04 09:49:38;;;;;;;3.75;3.25;;;26.50;62.00;;;;;;4982736;28;20027;-75
2021/07/04 09:52:18;;;;;;;4.43;4.00;;;26.50;60.40;;;;;;4982335;28;20049;-74
2021/07/04 09:55:00;;;;;;;10.90;9.50;;;26.50;60.30;;;;;;4984732;28;20023;-72
2021/07/04 09:57:27;;;;;;;7.82;7.03;;;26.60;61.00;;;;;;4984765;28;20730;-73
2021/07/04 10:00:16;;;;;;;4.75;4.30;;;26.60;58.20;;;;;;4982602;28;20109;-73
2021/07/04 10:03:02;;;;;;;4.70;4.03;;;26.70;58.60;;;;;;4981957;28;20018;-72
2021/07/04 10:05:28;;;;;;;3.45;2.92;;;26.70;57.20;;;;;;4981710;28;20060;-73
2021/07/04 10:07:53;;;;;;;4.93;4.45;;;26.70;58.10;;;;;;4985304;28;20479;-73
2021/07/04 10:10:19;;;;;;;4.10;3.70;;;26.80;58.90;;;;;;4986039;28;20141;-73
2021/07/04 10:12:44;;;;;;;4.47;3.40;;;27.00;57.60;;;;;;4983090;28;20556;-73
2021/07/04 10:15:10;;;;;;;3.97;3.58;;;27.10;57.10;;;;;;4982018;28;20449;-73
2021/07/04 10:17:37;;;;;;;3.92;3.53;;;27.20;57.50;;;;;;4982356;28;20026;-73
2021/07/04 10:20:04;;;;;;;4.00;3.50;;;27.20;54.50;;;;;;4981665;28;20446;-73
2021/07/04 10:22:35;;;;;;;4.95;3.65;;;27.10;55.30;;;;;;4982008;28;20030;-73
2021/07/04 10:25:03;;;;;;;4.82;4.13;;;27.00;53.90;;;;;;4983267;28;20394;-73
2021/07/04 10:27:29;;;;;;;8.05;7.25;;;27.00;55.00;;;;;;4996563;28;20597;-73
2021/07/04 10:29:54;;;;;;;68.75;51.75;;;27.00;55.20;;;;;;4996978;28;20121;-73
2021/07/04 10:32:21;;;;;;;21.90;17.67;;;27.10;53.60;;;;;;4981903;28;20019;-73
2021/07/04 10:34:48;;;;;;;23.35;17.98;;;27.00;54.00;;;;;;4979873;28;20511;-71
2021/07/04 10:37:16;;;;;;;6.32;5.72;;;27.10;55.10;;;;;;4998545;28;20038;-71
2021/07/04 10:39:42;;;;;;;20.75;18.55;;;27.20;54.50;;;;;;4982187;28;20169;-70
2021/07/04 10:42:10;;;;;;;6.78;5.80;;;27.10;54.20;;;;;;4982817;28;20018;-71
2021/07/04 10:44:43;;;;;;;14.10;12.10;;;27.00;54.50;;;;;;4981837;28;20030;-72
2021/07/04 10:47:21;;;;;;;11.38;9.15;;;27.10;55.60;;;;;;4983812;28;20030;-73
2021/07/04 10:49:49;;;;;;;6.30;5.70;;;27.30;55.90;;;;;;4984265;28;20026;-73
2021/07/04 10:52:19;;;;;;;3.67;3.38;;;27.50;55.70;;;;;;4983194;28;20477;-72
2021/07/04 10:54:54;;;;;;;4.00;3.67;;;27.40;55.10;;;;;;4982391;28;20030;-73
2021/07/04 10:57:25;;;;;;;5.78;5.28;;;27.40;54.50;;;;;;4979813;28;20042;-72
2021/07/04 11:00:12;;;;;;;12.52;10.63;;;27.40;54.80;;;;;;4982534;28;20161;-72
2021/07/04 11:02:50;;;;;;;4.85;4.43;;;27.50;53.10;;;;;;5044071;28;20754;-64
2021/07/04 11:05:31;;;;;;;10.23;9.23;;;27.40;52.30;;;;;;5043646;28;20104;-64
2021/07/04 11:07:56;;;;;;;14.73;11.82;;;27.30;52.50;;;;;;5043722;28;20025;-63
2021/07/04 11:10:30;;;;;;;8.38;7.07;;;27.30;53.20;;;;;;5043724;28;20071;-63
2021/07/04 11:13:07;;;;;;;5.88;5.38;;;27.40;53.20;;;;;;5043313;28;20100;-64
2021/07/04 11:15:34;;;;;;;7.70;6.78;;;27.40;52.10;;;;;;5042367;28;20470;-63
2021/07/04 11:18:03;;;;;;;4.75;4.18;;;27.40;52.10;;;;;;5043603;28;20037;-64
2021/07/04 11:20:30;;;;;;;5.25;4.75;;;27.40;52.50;;;;;;5043151;28;20036;-63
2021/07/04 11:22:56;;;;;;;12.90;11.48;;;27.50;52.50;;;;;;5043803;28;20025;-63
2021/07/04 11:25:23;;;;;;;8.40;7.55;;;27.50;50.60;;;;;;5043536;28;20075;-63
2021/07/04 11:28:27;;;;;;;8.15;3.33;;;27.40;51.00;;;;;;5043743;28;20025;-63
2021/07/04 11:31:16;;;;;;;3.63;3.33;;;27.30;50.80;;;;;;5043799;28;20112;-64
2021/07/04 11:33:43;;;;;;;3.15;2.95;;;27.30;52.00;;;;;;5043302;28;20059;-64
2021/07/04 11:36:15;;;;;;;5.90;5.32;;;27.50;52.10;;;;;;5042971;28;20025;-63
2021/07/04 11:39:04;;;;;;;4.35;3.97;;;27.60;50.30;;;;;;5042995;28;20045;-63
2021/07/04 11:41:59;;;;;;;6.82;5.45;;;27.50;50.30;;;;;;5042729;28;20041;-63
2021/07/04 11:44:26;;;;;;;4.87;4.47;;;27.50;50.80;;;;;;5042640;28;20039;-62
2021/07/04 11:46:53;;;;;;;5.68;3.92;;;27.40;50.70;;;;;;5043072;28;20557;-64
2021/07/04 11:49:23;;;;;;;3.42;3.13;;;27.60;52.00;;;;;;5042258;28;20028;-63
2021/07/04 11:51:54;;;;;;;7.53;4.90;;;27.70;51.10;;;;;;5042776;28;20416;-63
2021/07/04 11:54:28;;;;;;;12.88;11.43;;;27.70;49.30;;;;;;5042462;28;20375;-62
2021/07/04 11:56:56;;;;;;;8.32;6.90;;;27.80;49.70;;;;;;5025219;28;20061;-62
2021/07/04 11:59:27;;;;;;;6.13;4.25;;;27.90;48.80;;;;;;5042175;28;20356;-63
2021/07/04 12:02:01;;;;;;;4.70;4.30;;;27.80;53.40;;;;;;5042191;28;20052;-64
2021/07/04 12:04:32;;;;;;;4.60;4.05;;;28.00;51.70;;;;;;5042501;28;20057;-64
2021/07/04 12:07:09;;;;;;;4.55;3.50;;;28.00;51.70;;;;;;5043013;28;20032;-62
2021/07/04 12:09:38;;;;;;;4.03;3.72;;;28.10;51.50;;;;;;5042508;28;20029;-64
2021/07/04 12:12:07;;;;;;;21.42;18.83;;;28.10;52.10;;;;;;5041107;28;20021;-62
2021/07/04 12:14:37;;;;;;;8.45;7.25;;;28.00;50.90;;;;;;5028771;28;20382;-64
2021/07/04 12:17:38;;;;;;;4.38;3.92;;;27.70;50.70;;;;;;5029305;28;20025;-63
2021/07/04 12:20:22;;;;;;;4.30;3.88;;;27.60;51.30;;;;;;5027920;28;20032;-63
2021/07/04 12:22:57;;;;;;;6.05;5.47;;;27.80;51.90;;;;;;5029304;28;20037;-64
2021/07/04 12:25:30;;;;;;;5.93;5.35;;;28.00;52.20;;;;;;5029228;28;20458;-63
2021/07/04 12:27:58;;;;;;;3.08;2.88;;;28.10;51.30;;;;;;5029090;28;20101;-63
2021/07/04 12:30:26;;;;;;;3.47;3.17;;;28.00;49.00;;;;;;5028559;28;20104;-63
2021/07/04 12:33:02;;;;;;;5.90;5.22;;;27.90;49.10;;;;;;5029130;28;20030;-64
2021/07/04 12:35:51;;;;;;;5.30;4.70;;;28.00;49.30;;;;;;5065795;22;20053;-79
2021/07/04 12:38:34;;;;;;;4.30;3.92;;;28.10;50.60;;;;;;5042652;28;20099;-79
2021/07/04 12:41:11;;;;;;;11.65;10.32;;;28.10;48.50;;;;;;5042019;28;20040;-78
2021/07/04 12:43:48;;;;;;;21.33;13.40;;;28.10;48.60;;;;;;5042006;28;20029;-78
2021/07/04 12:46:30;;;;;;;5.22;4.72;;;27.90;48.90;;;;;;5042321;28;20049;-78